Time;durP1;ratioP1;P1;durP2;ratioP2;P2;SDS_P1;SDS_P2;PMS_P1;PMS_P2;Temp;Humidity;BMP_temperature;BMP_pressure;BME280_temperature;BME280_humidity;BME280_pressure;Samples;Min_cycle;Max_cycle;Signal;HPM_P1;HPM_P2
2021/09/19 00:00:40;;;;;;;;;;;13.90;99.90;;;;;;5055633;28;19917;-77
2021/09/19 00:03:06;;;;;;;;;;;13.90;99.90;;;;;;5053924;28;19979;-77
2021/09/19 00:05:32;;;;;;;;;;;13.80;99.90;;;;;;5056250;28;19916;-77
2021/09/19 00:07:57;;;;;;;;;;;13.90;99.90;;;;;;5055375;28;19917;-78
2021/09/19 00:10:23;;;;;;;;;;;13.90;99.90;;;;;;5031101;28;19917;-76
2021/09/19 00:12:48;;;;;;;;;;;13.90;99.90;;;;;;5054845;28;20397;-78
2021/09/19 00:15:15;;;;;;;;;;;13.80;99.90;;;;;;5054503;28;19916;-77
2021/09/19 00:17:42;;;;;;;;;;;13.80;99.90;;;;;;5056894;28;20324;-76
2021/09/19 00:20:08;;;;;;;;;;;13.80;99.90;;;;;;5056399;28;20459;-78
2021/09/19 00:22:35;;;;;;;;;;;13.80;99.90;;;;;;5037798;28;19921;-77
2021/09/19 00:25:01;;;;;;;;;;;13.80;99.90;;;;;;5041769;28;19970;-76
2021/09/19 00:27:26;;;;;;;;;;;13.70;99.90;;;;;;5070649;28;20362;-77
2021/09/19 00:29:52;;;;;;;;;;;13.70;99.90;;;;;;5066292;28;20019;-76
2021/09/19 00:32:17;;;;;;;;;;;13.70;99.90;;;;;;5065085;28;19939;-77
2021/09/19 00:34:43;;;;;;;;;;;13.70;99.90;;;;;;5070420;28;19947;-77
2021/09/19 00:37:08;;;;;;;;;;;13.70;99.90;;;;;;5045788;28;19913;-77
2021/09/19 00:39:34;;;;;;;;;;;13.60;99.90;;;;;;5056699;28;20287;-77
2021/09/19 00:41:59;;;;;;;;;;;13.60;99.90;;;;;;5037164;28;19921;-78
2021/09/19 00:44:26;;;;;;;;;;;13.60;99.90;;;;;;5054964;28;19917;-76
2021/09/19 00:46:52;;;;;;;;;;;13.70;99.90;;;;;;5054011;28;19912;-76
2021/09/19 00:49:17;;;;;;;;;;;13.70;99.90;;;;;;5038422;28;20036;-77
2021/09/19 00:51:43;;;;;;;;;;;13.70;99.90;;;;;;5057374;28;20282;-77
2021/09/19 00:54:10;;;;;;;;;;;13.70;99.90;;;;;;5056170;28;19919;-77
2021/09/19 00:56:36;;;;;;;;;;;13.80;99.90;;;;;;5056171;28;19909;-77
2021/09/19 00:59:02;;;;;;;;;;;13.80;99.90;;;;;;5038628;28;19913;-76
2021/09/19 01:01:27;;;;;;;;;;;13.70;99.90;;;;;;5037872;28;19920;-77
2021/09/19 01:03:53;;;;;;;;;;;13.70;99.90;;;;;;5072865;28;19935;-77
2021/09/19 01:06:19;;;;;;;;;;;13.70;99.90;;;;;;5056055;28;19966;-77
2021/09/19 01:08:45;;;;;;;;;;;13.70;99.90;;;;;;5055301;28;20327;-77
2021/09/19 01:11:12;;;;;;;;;;;13.70;99.90;;;;;;5055273;28;20053;-76
2021/09/19 01:13:40;;;;;;;;;;;13.60;99.90;;;;;;5042547;28;19923;-77
2021/09/19 01:16:05;;;;;;;;;;;13.70;99.90;;;;;;5055667;28;20359;-76
2021/09/19 01:18:31;;;;;;;;;;;13.70;99.90;;;;;;5058227;28;20099;-76
2021/09/19 01:20:57;;;;;;;;;;;13.70;99.90;;;;;;5037313;28;19982;-77
2021/09/19 01:23:23;;;;;;;;;;;13.60;99.90;;;;;;5053863;28;19987;-76
2021/09/19 01:25:48;;;;;;;;;;;13.70;99.90;;;;;;5071579;28;20303;-77
2021/09/19 01:28:14;;;;;;;;;;;13.70;99.90;;;;;;5055437;28;19917;-77
2021/09/19 01:30:40;;;;;;;;;;;13.70;99.90;;;;;;5037649;28;19923;-78
2021/09/19 01:33:05;;;;;;;;;;;13.70;99.90;;;;;;5054636;28;20011;-77
2021/09/19 01:35:31;;;;;;;;;;;13.70;99.90;;;;;;5059458;28;19939;-77
2021/09/19 01:37:57;;;;;;;;;;;13.70;99.90;;;;;;5068527;28;19913;-77
2021/09/19 01:40:23;;;;;;;;;;;13.70;99.90;;;;;;5032974;28;19923;-77
2021/09/19 01:42:49;;;;;;;;;;;13.70;99.90;;;;;;5050030;28;19916;-77
2021/09/19 01:45:14;;;;;;;;;;;13.70;99.90;;;;;;5051059;28;19917;-77
2021/09/19 01:47:40;;;;;;;;;;;13.70;99.90;;;;;;5052186;28;19917;-76
2021/09/19 01:50:07;;;;;;;;;;;13.70;99.90;;;;;;5037111;28;19912;-77
2021/09/19 01:52:32;;;;;;;;;;;13.80;99.90;;;;;;5056782;28;19919;-77
2021/09/19 01:54:59;;;;;;;;;;;13.90;99.90;;;;;;5058101;28;20031;-77
2021/09/19 01:57:27;;;;;;;;;;;13.90;99.90;;;;;;5033678;28;19976;-78
2021/09/19 01:59:53;;;;;;;;;;;13.90;99.90;;;;;;5036476;28;19990;-76
2021/09/19 02:02:19;;;;;;;;;;;13.90;99.90;;;;;;5052545;28;19917;-77
2021/09/19 02:04:45;;;;;;;;;;;13.90;99.90;;;;;;5025323;28;19992;-77
2021/09/19 02:07:11;;;;;;;;;;;13.90;99.90;;;;;;5053823;28;19925;-75
2021/09/19 02:09:36;;;;;;;;;;;13.90;99.90;;;;;;5048623;28;19913;-76
2021/09/19 02:12:02;;;;;;;;;;;13.80;99.90;;;;;;5062557;28;19996;-77
2021/09/19 02:14:28;;;;;;;;;;;13.90;99.90;;;;;;5042498;28;19919;-77
2021/09/19 02:16:53;;;;;;;;;;;13.90;99.90;;;;;;5049310;28;19917;-77
2021/09/19 02:19:19;;;;;;;;;;;13.80;99.90;;;;;;5055850;28;19932;-77
2021/09/19 02:21:45;;;;;;;;;;;13.80;99.90;;;;;;5053811;28;20197;-77
2021/09/19 02:24:11;;;;;;;;;;;13.80;99.90;;;;;;5038931;28;19931;-78
2021/09/19 02:26:36;;;;;;;;;;;13.80;99.90;;;;;;5054001;28;19912;-77
2021/09/19 02:29:02;;;;;;;;;;;13.80;99.90;;;;;;5047777;28;20498;-76
2021/09/19 02:31:28;;;;;;;;;;;13.80;99.90;;;;;;5053288;28;19963;-77
2021/09/19 02:33:54;;;;;;;;;;;13.70;99.90;;;;;;5054187;28;20207;-76
2021/09/19 02:36:19;;;;;;;;;;;13.70;99.90;;;;;;5058320;28;19924;-77
2021/09/19 02:38:45;;;;;;;;;;;13.70;99.90;;;;;;5063479;28;20312;-78
2021/09/19 02:41:11;;;;;;;;;;;13.70;99.90;;;;;;5040972;28;20307;-76
2021/09/19 02:43:36;;;;;;;;;;;13.70;99.90;;;;;;5059008;28;19909;-77
2021/09/19 02:46:02;;;;;;;;;;;13.80;99.90;;;;;;5054044;28;20353;-77
2021/09/19 02:48:27;;;;;;;;;;;13.80;99.90;;;;;;5053601;28;20246;-77
2021/09/19 02:50:53;;;;;;;;;;;13.80;99.90;;;;;;5053438;28;19913;-77
2021/09/19 02:53:19;;;;;;;;;;;13.70;99.90;;;;;;5051753;28;20279;-77
2021/09/19 02:55:44;;;;;;;;;;;13.70;99.90;;;;;;5053121;28;19952;-77
2021/09/19 02:58:10;;;;;;;;;;;13.80;99.90;;;;;;5053023;28;19967;-77
2021/09/19 03:00:35;;;;;;;;;;;13.80;99.90;;;;;;5060830;28;20300;-77
2021/09/19 03:03:01;;;;;;;;;;;13.80;99.90;;;;;;5053959;28;19955;-76
2021/09/19 03:05:26;;;;;;;;;;;13.80;99.90;;;;;;5054214;28;19912;-77
2021/09/19 03:07:54;;;;;;;;;;;13.70;99.90;;;;;;5054632;28;19920;-77
2021/09/19 03:10:19;;;;;;;;;;;13.80;99.90;;;;;;5054027;28;19913;-77
2021/09/19 03:12:45;;;;;;;;;;;13.70;99.90;;;;;;5036457;28;20295;-77
2021/09/19 03:15:11;;;;;;;;;;;13.70;99.90;;;;;;5053898;28;19912;-78
2021/09/19 03:17:37;;;;;;;;;;;13.70;99.90;;;;;;5053360;28;19917;-78
2021/09/19 03:20:04;;;;;;;;;;;13.80;99.90;;;;;;5052644;28;20013;-77
2021/09/19 03:22:29;;;;;;;;;;;13.70;99.90;;;;;;5053766;28;19921;-77
2021/09/19 03:24:55;;;;;;;;;;;13.80;99.90;;;;;;5043887;28;19923;-78
2021/09/19 03:27:20;;;;;;;;;;;13.80;99.90;;;;;;5040397;28;19917;-76
2021/09/19 03:29:46;;;;;;;;;;;13.80;99.90;;;;;;5036318;28;20011;-78
2021/09/19 03:32:11;;;;;;;;;;;13.80;99.90;;;;;;5053577;28;19917;-77
2021/09/19 03:34:37;;;;;;;;;;;13.70;99.90;;;;;;5051452;28;20314;-77
2021/09/19 03:37:03;;;;;;;;;;;13.80;99.90;;;;;;5062634;28;19932;-77
2021/09/19 03:39:29;;;;;;;;;;;13.90;99.90;;;;;;5052080;28;19912;-78
2021/09/19 03:41:54;;;;;;;;;;;13.80;99.90;;;;;;5060982;28;19921;-77
2021/09/19 03:44:20;;;;;;;;;;;13.80;99.90;;;;;;5057917;28;19943;-78
2021/09/19 03:46:45;;;;;;;;;;;13.80;99.90;;;;;;5064176;28;19946;-77
2021/09/19 03:49:11;;;;;;;;;;;13.70;99.90;;;;;;5053881;28;19913;-76
2021/09/19 03:51:37;;;;;;;;;;;13.70;99.90;;;;;;5066536;28;19913;-77
2021/09/19 03:54:03;;;;;;;;;;;13.70;99.90;;;;;;5064788;28;20291;-77
2021/09/19 03:56:29;;;;;;;;;;;13.70;99.90;;;;;;5063252;28;19941;-78
2021/09/19 03:58:55;;;;;;;;;;;13.60;99.90;;;;;;5055559;28;19952;-76
2021/09/19 04:01:20;;;;;;;;;;;13.70;99.90;;;;;;5055503;28;19990;-76
2021/09/19 04:03:46;;;;;;;;;;;13.70;99.90;;;;;;5056295;28;19920;-78
2021/09/19 04:06:11;;;;;;;;;;;13.70;99.90;;;;;;5057280;28;19931;-78
2021/09/19 04:08:37;;;;;;;;;;;13.70;99.90;;;;;;5038828;28;19909;-77
2021/09/19 04:11:02;;;;;;;;;;;13.70;99.90;;;;;;5057302;28;19913;-78
2021/09/19 04:13:28;;;;;;;;;;;13.70;99.90;;;;;;5038699;28;20363;-76
2021/09/19 04:15:53;;;;;;;;;;;13.60;99.90;;;;;;5057012;28;19948;-78
2021/09/19 04:18:19;;;;;;;;;;;13.60;99.90;;;;;;5056538;28;19935;-78
2021/09/19 04:20:45;;;;;;;;;;;13.60;99.90;;;;;;5056001;28;19920;-78
2021/09/19 04:23:11;;;;;;;;;;;13.60;99.90;;;;;;5056248;28;19925;-75
2021/09/19 04:25:36;;;;;;;;;;;13.60;99.90;;;;;;5057290;28;19913;-77
2021/09/19 04:28:02;;;;;;;;;;;13.60;99.90;;;;;;5067406;28;19912;-77
2021/09/19 04:30:28;;;;;;;;;;;13.60;99.90;;;;;;5063482;28;20074;-78
2021/09/19 04:32:53;;;;;;;;;;;13.60;99.90;;;;;;5056842;28;19986;-78
2021/09/19 04:35:19;;;;;;;;;;;13.60;99.90;;;;;;5056416;28;19939;-77
2021/09/19 04:37:44;;;;;;;;;;;13.60;99.90;;;;;;5056038;28;19920;-77
2021/09/19 04:40:10;;;;;;;;;;;13.60;99.90;;;;;;5056865;28;19917;-77
2021/09/19 04:42:36;;;;;;;;;;;13.60;99.90;;;;;;5057020;28;20004;-77
2021/09/19 04:45:03;;;;;;;;;;;13.50;99.90;;;;;;5054735;28;19960;-78
2021/09/19 04:47:28;;;;;;;;;;;13.50;99.90;;;;;;5035675;28;19913;-79
2021/09/19 04:49:54;;;;;;;;;;;13.60;99.90;;;;;;5052900;28;19913;-78
2021/09/19 04:52:19;;;;;;;;;;;13.60;99.90;;;;;;5056462;28;19916;-78
2021/09/19 04:54:45;;;;;;;;;;;13.60;99.90;;;;;;5054410;28;19924;-78
2021/09/19 04:57:10;;;;;;;;;;;13.60;99.90;;;;;;5018814;28;19917;-75
2021/09/19 04:59:36;;;;;;;;;;;13.60;99.90;;;;;;5036546;28;19909;-78
2021/09/19 05:02:02;;;;;;;;;;;13.60;99.90;;;;;;5029788;28;19970;-78
2021/09/19 05:04:28;;;;;;;;;;;13.60;99.90;;;;;;5053146;28;19974;-78
2021/09/19 05:06:54;;;;;;;;;;;13.60;99.90;;;;;;5047998;28;20277;-78
2021/09/19 05:09:19;;;;;;;;;;;13.70;99.90;;;;;;5027398;28;19962;-78
2021/09/19 05:11:45;;;;;;;;;;;13.70;99.90;;;;;;5055872;28;19991;-78
2021/09/19 05:14:10;;;;;;;;;;;13.70;99.90;;;;;;5050491;28;19944;-76
2021/09/19 05:16:36;;;;;;;;;;;13.60;99.90;;;;;;5060270;28;20283;-78
2021/09/19 05:19:01;;;;;;;;;;;13.60;99.90;;;;;;5047004;28;19913;-78
2021/09/19 05:21:27;;;;;;;;;;;13.60;99.90;;;;;;5043586;28;20065;-78
2021/09/19 05:23:53;;;;;;;;;;;13.60;99.90;;;;;;5064797;28;20494;-79
2021/09/19 05:26:18;;;;;;;;;;;13.60;99.90;;;;;;5061507;28;19913;-79
2021/09/19 05:28:44;;;;;;;;;;;13.60;99.90;;;;;;5064195;28;19912;-78
2021/09/19 05:31:12;;;;;;;;;;;13.60;99.90;;;;;;5045058;28;19956;-78
2021/09/19 05:33:38;;;;;;;;;;;13.60;99.90;;;;;;5065113;28;19927;-78
2021/09/19 05:36:03;;;;;;;;;;;13.60;99.90;;;;;;5064859;28;19912;-78
2021/09/19 05:38:29;;;;;;;;;;;13.60;99.90;;;;;;5046915;28;20033;-78
2021/09/19 05:40:54;;;;;;;;;;;13.60;99.90;;;;;;5061839;28;20459;-78
2021/09/19 05:43:20;;;;;;;;;;;13.60;99.90;;;;;;5061779;28;20390;-77
2021/09/19 05:45:45;;;;;;;;;;;13.60;99.90;;;;;;5040279;28;19916;-78
2021/09/19 05:48:11;;;;;;;;;;;13.70;99.90;;;;;;5042706;28;20007;-78
2021/09/19 05:50:37;;;;;;;;;;;13.60;99.90;;;;;;5064562;28;20517;-78
2021/09/19 05:53:02;;;;;;;;;;;13.60;99.90;;;;;;5064391;28;19916;-78
2021/09/19 05:55:28;;;;;;;;;;;13.60;99.90;;;;;;5062765;28;19917;-78
2021/09/19 05:57:53;;;;;;;;;;;13.60;99.90;;;;;;5062535;28;19913;-77
2021/09/19 06:00:19;;;;;;;;;;;13.60;99.90;;;;;;5061622;28;20379;-78
2021/09/19 06:02:44;;;;;;;;;;;13.60;99.90;;;;;;5040913;28;19966;-77
2021/09/19 06:05:10;;;;;;;;;;;13.60;99.90;;;;;;5061001;28;19921;-77
2021/09/19 06:07:37;;;;;;;;;;;13.60;99.90;;;;;;5042044;28;19916;-77
2021/09/19 06:10:03;;;;;;;;;;;13.60;99.90;;;;;;5043045;28;19921;-77
2021/09/19 06:12:29;;;;;;;;;;;13.50;99.90;;;;;;5045758;28;19912;-78
2021/09/19 06:14:54;;;;;;;;;;;13.60;99.90;;;;;;5062539;28;20322;-77
2021/09/19 06:17:20;;;;;;;;;;;13.60;99.90;;;;;;5069860;28;19943;-77
2021/09/19 06:19:50;;;;;;;;;;;13.60;99.90;;;;;;5036384;28;19936;-77
2021/09/19 06:22:16;;;;;;;;;;;13.70;99.90;;;;;;5036488;28;19916;-78
2021/09/19 06:24:42;;;;;;;;;;;13.70;99.90;;;;;;5057050;28;20304;-77
2021/09/19 06:27:08;;;;;;;;;;;13.70;99.90;;;;;;5054823;28;19912;-77
2021/09/19 06:29:33;;;;;;;;;;;13.80;99.90;;;;;;5054273;28;19913;-77
2021/09/19 06:31:59;;;;;;;;;;;13.80;99.90;;;;;;5054066;28;19921;-78
2021/09/19 06:34:24;;;;;;;;;;;13.90;99.90;;;;;;5055401;28;19920;-77
2021/09/19 06:36:50;;;;;;;;;;;13.90;99.90;;;;;;5063986;28;19917;-77
2021/09/19 06:39:15;;;;;;;;;;;13.90;99.90;;;;;;5036143;28;19959;-77
2021/09/19 06:41:41;;;;;;;;;;;14.00;99.90;;;;;;5046382;28;19917;-76
2021/09/19 06:44:06;;;;;;;;;;;14.00;99.90;;;;;;5058610;28;19992;-77
2021/09/19 06:46:33;;;;;;;;;;;14.10;99.90;;;;;;5052863;28;19912;-77
2021/09/19 06:48:59;;;;;;;;;;;14.10;99.90;;;;;;5054811;28;19921;-77
2021/09/19 06:51:25;;;;;;;;;;;14.20;99.90;;;;;;5053248;28;19924;-78
2021/09/19 06:53:50;;;;;;;;;;;14.30;99.90;;;;;;5054604;28;19912;-78
2021/09/19 06:56:16;;;;;;;;;;;14.50;99.90;;;;;;5048645;28;19931;-78
2021/09/19 06:58:42;;;;;;;;;;;14.80;99.90;;;;;;5053624;28;19999;-77
2021/09/19 07:01:10;;;;;;;;;;;15.10;99.90;;;;;;5048628;28;20020;-77
2021/09/19 07:03:36;;;;;;;;;;;15.30;99.90;;;;;;5052255;28;19927;-77
2021/09/19 07:06:01;;;;;;;;;;;15.60;99.90;;;;;;5051690;28;19909;-78
2021/09/19 07:08:27;;;;;;;;;;;15.80;99.90;;;;;;5052475;28;19912;-76
2021/09/19 07:10:53;;;;;;;;;;;16.00;99.90;;;;;;5054628;28;19913;-77
2021/09/19 07:13:21;;;;;;;;;;;16.00;99.90;;;;;;5054324;28;19916;-78
2021/09/19 07:15:52;;;;;;;;;;;16.00;99.90;;;;;;5030445;28;19909;-78
2021/09/19 07:18:18;;;;;;;;;;;16.10;99.90;;;;;;5047603;28;19942;-78
2021/09/19 07:20:44;;;;;;;;;;;16.10;99.90;;;;;;5053648;28;19924;-78
2021/09/19 07:23:09;;;;;;;;;;;16.10;99.90;;;;;;5053247;28;21786;-78
2021/09/19 07:25:35;;;;;;;;;;;16.10;99.90;;;;;;5085212;28;19963;-77
2021/09/19 07:28:03;;;;;;;;;;;16.10;99.90;;;;;;5063299;28;19913;-78
2021/09/19 07:30:29;;;;;;;;;;;16.20;99.90;;;;;;5047222;28;19999;-79
2021/09/19 07:32:55;;;;;;;;;;;16.40;99.90;;;;;;5056613;28;19913;-78
2021/09/19 07:35:21;;;;;;;;;;;16.50;99.90;;;;;;5067802;28;19919;-76
2021/09/19 07:37:46;;;;;;;;;;;16.70;99.90;;;;;;5042003;28;19913;-77
2021/09/19 07:40:12;;;;;;;;;;;16.80;99.90;;;;;;5057993;28;19970;-77
2021/09/19 07:42:38;;;;;;;;;;;17.00;99.90;;;;;;5039162;28;19916;-78
2021/09/19 07:45:04;;;;;;;;;;;17.30;99.90;;;;;;5061840;28;19913;-78
2021/09/19 07:47:30;;;;;;;;;;;17.60;99.90;;;;;;5043402;28;19913;-79
2021/09/19 07:49:56;;;;;;;;;;;17.80;99.90;;;;;;5055979;28;19953;-78
2021/09/19 07:52:22;;;;;;;;;;;17.90;99.90;;;;;;5057740;28;19947;-77
2021/09/19 07:54:47;;;;;;;;;;;17.90;99.90;;;;;;5039965;28;19976;-78
2021/09/19 07:57:13;;;;;;;;;;;17.90;99.90;;;;;;5057654;28;19913;-78
2021/09/19 07:59:39;;;;;;;;;;;18.10;99.90;;;;;;5058442;28;19944;-78
2021/09/19 08:02:04;;;;;;;;;;;18.20;99.90;;;;;;5057376;28;19920;-78
2021/09/19 08:04:31;;;;;;;;;;;18.30;99.90;;;;;;5028962;28;20305;-83
2021/09/19 08:06:56;;;;;;;;;;;18.10;99.90;;;;;;5042187;28;19913;-79
2021/09/19 08:09:22;;;;;;;;;;;18.10;99.90;;;;;;5038832;28;20003;-79
2021/09/19 08:11:48;;;;;;;;;;;18.10;99.90;;;;;;5056204;28;20320;-79
2021/09/19 08:14:13;;;;;;;;;;;18.10;99.90;;;;;;5039569;28;19916;-78
2021/09/19 08:16:40;;;;;;;;;;;18.10;99.90;;;;;;5065386;28;19999;-79
2021/09/19 08:19:06;;;;;;;;;;;17.70;99.90;;;;;;5037945;28;19913;-78
2021/09/19 08:21:32;;;;;;;;;;;17.50;99.90;;;;;;5037620;28;19924;-79
2021/09/19 08:23:57;;;;;;;;;;;17.40;99.90;;;;;;5040272;28;19925;-78
2021/09/19 08:26:23;;;;;;;;;;;17.30;99.90;;;;;;5086098;28;19916;-79
2021/09/19 08:28:49;;;;;;;;;;;17.60;99.90;;;;;;5044067;28;20750;-79
2021/09/19 08:31:14;;;;;;;;;;;18.00;99.90;;;;;;5067676;28;20320;-79
2021/09/19 08:33:40;;;;;;;;;;;18.10;99.90;;;;;;5038349;28;20020;-79
2021/09/19 08:36:05;;;;;;;;;;;18.30;99.90;;;;;;5040145;28;20224;-79
2021/09/19 08:38:31;;;;;;;;;;;18.40;99.90;;;;;;5053307;28;19913;-77
2021/09/19 08:40:57;;;;;;;;;;;18.40;99.90;;;;;;5037855;28;19968;-80
2021/09/19 08:43:22;;;;;;;;;;;18.50;99.90;;;;;;5055604;28;20272;-78
2021/09/19 08:45:49;;;;;;;;;;;18.60;99.90;;;;;;5056245;28;19920;-78
2021/09/19 08:48:25;;;;;;;;;;;18.60;99.90;;;;;;5054217;28;19912;-78
2021/09/19 08:50:52;;;;;;;;;;;18.50;99.90;;;;;;5055617;28;19921;-77
2021/09/19 08:53:18;;;;;;;;;;;18.60;99.90;;;;;;5045095;28;19923;-78
2021/09/19 08:55:43;;;;;;;;;;;18.50;99.90;;;;;;5055183;28;19987;-79
2021/09/19 08:58:10;;;;;;;;;;;18.60;99.90;;;;;;5058146;28;19908;-79
2021/09/19 09:00:39;;;;;;;;;;;18.70;99.90;;;;;;5054346;28;19917;-80
2021/09/19 09:03:10;;;;;;;;;;;18.70;99.90;;;;;;5055208;28;19921;-79
2021/09/19 09:05:37;;;;;;;;;;;18.80;99.90;;;;;;5034885;28;20312;-78
2021/09/19 09:08:03;;;;;;;;;;;18.90;99.90;;;;;;5039152;28;20271;-78
2021/09/19 09:10:30;;;;;;;;;;;18.90;99.90;;;;;;5054726;28;20370;-78
2021/09/19 09:13:00;;;;;;;;;;;18.90;99.90;;;;;;5042770;28;19913;-79
2021/09/19 09:15:33;;;;;;;;;;;19.00;99.90;;;;;;5049098;28;20639;-80
2021/09/19 09:17:58;;;;;;;;;;;19.10;99.90;;;;;;5045401;28;19909;-80
2021/09/19 09:20:24;;;;;;;;;;;19.10;99.90;;;;;;5046074;28;20019;-79
2021/09/19 09:22:50;;;;;;;;;;;19.00;99.90;;;;;;5038231;28;20212;-79
2021/09/19 09:25:17;;;;;;;;;;;19.00;99.90;;;;;;5034134;28;20008;-79
2021/09/19 09:27:42;;;;;;;;;;;18.90;99.90;;;;;;5060863;28;19915;-82
2021/09/19 09:30:09;;;;;;;;;;;18.90;99.90;;;;;;5033140;28;19913;-80
2021/09/19 09:33:10;;;;;;;;;;;19.00;99.90;;;;;;5036812;28;19917;-82
2021/09/19 09:35:37;;;;;;;;;;;19.20;99.90;;;;;;5019460;28;19917;-81
2021/09/19 09:38:16;;;;;;;;;;;19.20;99.90;;;;;;5012298;28;19976;-83
2021/09/19 09:40:42;;;;;;;;;;;19.20;99.90;;;;;;5026648;28;20295;-79
2021/09/19 09:43:10;;;;;;;;;;;19.30;99.90;;;;;;5004206;28;19913;-78
2021/09/19 09:45:39;;;;;;;;;;;19.40;99.90;;;;;;5011170;28;20125;-79
2021/09/19 09:48:22;;;;;;;;;;;19.50;99.90;;;;;;5010717;28;19917;-88
2021/09/19 09:50:48;;;;;;;;;;;19.60;99.90;;;;;;5015228;28;19953;-85
2021/09/19 09:53:14;;;;;;;;;;;19.60;99.90;;;;;;5014013;28;19941;-83
2021/09/19 09:55:43;;;;;;;;;;;19.60;99.90;;;;;;5014899;28;19996;-80
2021/09/19 09:58:13;;;;;;;;;;;19.60;99.90;;;;;;4998345;28;19913;-81
2021/09/19 10:00:40;;;;;;;;;;;19.70;99.90;;;;;;5014265;28;19909;-80
2021/09/19 10:03:06;;;;;;;;;;;19.80;99.90;;;;;;4998678;28;19909;-79
2021/09/19 10:05:32;;;;;;;;;;;19.80;99.90;;;;;;5029562;28;19913;-82
2021/09/19 10:07:58;;;;;;;;;;;20.00;99.90;;;;;;5006347;28;19917;-80
2021/09/19 10:10:25;;;;;;;;;;;20.00;99.90;;;;;;5045895;28;19925;-79
2021/09/19 10:12:51;;;;;;;;;;;20.00;99.90;;;;;;5047554;28;19944;-82
2021/09/19 10:15:17;;;;;;;;;;;20.00;99.90;;;;;;5036664;28;19973;-81
2021/09/19 10:17:43;;;;;;;;;;;20.00;99.90;;;;;;5035329;28;19978;-80
2021/09/19 10:20:11;;;;;;;;;;;20.10;99.90;;;;;;5054607;28;19919;-80
2021/09/19 10:22:43;;;;;;;;;;;20.20;99.90;;;;;;5025878;28;19921;-80
2021/09/19 10:25:19;;;;;;;;;;;20.20;99.90;;;;;;5074592;28;19923;-83
2021/09/19 10:27:48;;;;;;;;;;;20.10;99.90;;;;;;5067666;28;19963;-86
2021/09/19 10:30:14;;;;;;;;;;;20.00;99.90;;;;;;5032564;28;19917;-82
2021/09/19 10:32:40;;;;;;;;;;;20.00;99.90;;;;;;5053872;28;19909;-80
2021/09/19 10:35:15;;;;;;;;;;;19.90;99.90;;;;;;5053882;28;19909;-82
2021/09/19 10:37:49;;;;;;;;;;;19.90;99.90;;;;;;5052007;28;19928;-80
2021/09/19 10:40:29;;;;;;;;;;;19.90;99.90;;;;;;5053596;28;19909;-80
2021/09/19 10:42:55;;;;;;;;;;;20.00;99.90;;;;;;5039175;28;19917;-80
2021/09/19 10:45:21;;;;;;;;;;;20.00;99.90;;;;;;5036818;28;19960;-76
2021/09/19 10:47:48;;;;;;;;;;;20.00;99.90;;;;;;5054056;28;20272;-82
2021/09/19 10:50:21;;;;;;;;;;;20.00;99.90;;;;;;5056239;28;19948;-79
2021/09/19 10:52:47;;;;;;;;;;;20.10;99.90;;;;;;5057883;28;19913;-80
2021/09/19 10:55:19;;;;;;;;;;;20.20;99.90;;;;;;5047694;28;20376;-80
2021/09/19 10:57:55;;;;;;;;;;;20.20;99.90;;;;;;5027627;28;20020;-80
2021/09/19 11:00:21;;;;;;;;;;;20.30;99.90;;;;;;5020068;28;19917;-76
2021/09/19 11:03:03;;;;;;;;;;;20.40;99.90;;;;;;5047706;28;19913;-80
2021/09/19 11:05:28;;;;;;;;;;;20.50;99.90;;;;;;5041815;28;19912;-80
2021/09/19 11:08:06;;;;;;;;;;;20.50;99.90;;;;;;5049478;28;19912;-80
2021/09/19 11:10:32;;;;;;;;;;;20.40;99.90;;;;;;5036825;28;19959;-80
2021/09/19 11:13:17;;;;;;;;;;;20.30;99.90;;;;;;5035951;28;19974;-80
2021/09/19 11:15:43;;;;;;;;;;;20.20;99.90;;;;;;5064441;28;19916;-82
2021/09/19 11:18:21;;;;;;;;;;;20.30;99.90;;;;;;5048514;28;19917;-77
2021/09/19 11:20:47;;;;;;;;;;;20.30;99.90;;;;;;5061484;28;19912;-85
2021/09/19 11:23:27;;;;;;;;;;;20.40;99.90;;;;;;5062954;28;20251;-82
2021/09/19 11:25:53;;;;;;;;;;;20.40;99.90;;;;;;5067011;28;20213;-80
2021/09/19 11:28:19;;;;;;;;;;;20.40;99.90;;;;;;5047405;28;19919;-79
2021/09/19 11:30:44;;;;;;;;;;;20.60;99.90;;;;;;5042493;28;19963;-81
2021/09/19 11:33:11;;;;;;;;;;;20.70;99.90;;;;;;5040377;28;19917;-82
2021/09/19 11:35:37;;;;;;;;;;;20.70;99.90;;;;;;5065638;28;19913;-82
2021/09/19 11:38:04;;;;;;;;;;;20.70;99.90;;;;;;5062538;28;19939;-80
2021/09/19 11:40:29;;;;;;;;;;;20.60;99.90;;;;;;5065670;28;20334;-82
2021/09/19 11:42:57;;;;;;;;;;;20.40;99.90;;;;;;5062742;28;19948;-81
2021/09/19 11:45:22;;;;;;;;;;;20.40;99.90;;;;;;5065658;28;19974;-79
2021/09/19 11:47:52;;;;;;;;;;;20.40;99.90;;;;;;5046333;28;19913;-83
2021/09/19 11:50:21;;;;;;;;;;;20.50;99.90;;;;;;5066328;28;19920;-91
2021/09/19 11:52:50;;;;;;;;;;;20.40;99.90;;;;;;5043728;28;20001;-81
2021/09/19 11:55:15;;;;;;;;;;;20.40;99.90;;;;;;5062589;28;19917;-81
2021/09/19 11:57:41;;;;;;;;;;;20.40;99.90;;;;;;5047961;28;19963;-81
2021/09/19 12:00:08;;;;;;;;;;;20.50;99.90;;;;;;5066678;28;19951;-81
2021/09/19 12:02:36;;;;;;;;;;;20.50;99.90;;;;;;5045641;28;19956;-83
2021/09/19 12:05:01;;;;;;;;;;;20.50;99.90;;;;;;5043504;28;19916;-78
2021/09/19 12:07:27;;;;;;;;;;;20.40;99.90;;;;;;5065219;28;21331;-81
2021/09/19 12:09:53;;;;;;;;;;;20.30;99.90;;;;;;5044294;28;20004;-82
2021/09/19 12:12:19;;;;;;;;;;;20.30;99.90;;;;;;5062091;28;19921;-83
2021/09/19 12:14:46;;;;;;;;;;;20.30;99.90;;;;;;5061593;28;19916;-82
2021/09/19 12:17:12;;;;;;;;;;;20.40;99.90;;;;;;5062229;28;19958;-81
2021/09/19 12:19:39;;;;;;;;;;;20.50;99.90;;;;;;5056538;28;19949;-81
2021/09/19 12:22:07;;;;;;;;;;;20.60;99.90;;;;;;5032214;28;20344;-81
2021/09/19 12:24:34;;;;;;;;;;;20.70;99.90;;;;;;5030774;28;19913;-81
2021/09/19 12:27:14;;;;;;;;;;;20.80;99.90;;;;;;5051292;28;19920;-81
2021/09/19 12:29:46;;;;;;;;;;;20.90;99.90;;;;;;5054015;28;19967;-81
2021/09/19 12:32:11;;;;;;;;;;;20.90;99.90;;;;;;5036563;28;19936;-76
2021/09/19 12:34:37;;;;;;;;;;;20.90;99.90;;;;;;5054299;28;19923;-81
2021/09/19 12:37:03;;;;;;;;;;;20.80;99.90;;;;;;5046823;28;19966;-82
2021/09/19 12:39:31;;;;;;;;;;;20.80;99.90;;;;;;5064491;28;19973;-81
2021/09/19 12:42:04;;;;;;;;;;;20.80;99.90;;;;;;5045490;28;20292;-81
2021/09/19 12:44:31;;;;;;;;;;;20.70;99.90;;;;;;5037771;28;19913;-82
2021/09/19 12:46:58;;;;;;;;;;;20.40;99.90;;;;;;5047158;28;20014;-82
2021/09/19 12:49:25;;;;;;;;;;;20.40;99.90;;;;;;5064870;28;19962;-81
2021/09/19 12:52:07;;;;;;;;;;;20.30;99.90;;;;;;5066297;28;20350;-80
2021/09/19 12:54:34;;;;;;;;;;;20.30;99.90;;;;;;5063866;28;19921;-82
2021/09/19 12:57:00;;;;;;;;;;;20.20;99.90;;;;;;5042924;28;19974;-81
2021/09/19 12:59:26;;;;;;;;;;;20.10;99.90;;;;;;5066614;28;20296;-83
2021/09/19 13:01:51;;;;;;;;;;;20.10;99.90;;;;;;5065112;28;20007;-83
2021/09/19 13:04:17;;;;;;;;;;;20.20;99.90;;;;;;5060577;28;19916;-83
2021/09/19 13:06:43;;;;;;;;;;;20.20;99.90;;;;;;5064486;28;19924;-81
2021/09/19 13:09:08;;;;;;;;;;;20.40;99.90;;;;;;5062170;28;19928;-84
2021/09/19 13:11:35;;;;;;;;;;;20.50;99.90;;;;;;5042841;28;20504;-83
2021/09/19 13:14:00;;;;;;;;;;;20.40;99.90;;;;;;5063218;28;19912;-88
2021/09/19 13:16:26;;;;;;;;;;;20.50;99.90;;;;;;5065612;28;20220;-83
2021/09/19 13:18:52;;;;;;;;;;;20.50;99.90;;;;;;5046858;28;19920;-81
2021/09/19 13:21:17;;;;;;;;;;;20.50;99.90;;;;;;5063847;28;19916;-83
2021/09/19 13:23:43;;;;;;;;;;;20.40;99.90;;;;;;5066088;28;19931;-84
2021/09/19 13:26:09;;;;;;;;;;;20.40;99.90;;;;;;5065060;28;19916;-83
2021/09/19 13:28:35;;;;;;;;;;;20.40;99.90;;;;;;5063308;28;19913;-83
2021/09/19 13:31:00;;;;;;;;;;;20.30;99.90;;;;;;5065165;28;19920;-84
2021/09/19 13:33:26;;;;;;;;;;;20.30;99.90;;;;;;5064078;28;20311;-82
2021/09/19 13:35:51;;;;;;;;;;;20.40;99.90;;;;;;5063836;28;19913;-78
2021/09/19 13:38:17;;;;;;;;;;;20.40;99.90;;;;;;5062836;28;19916;-84
2021/09/19 13:40:42;;;;;;;;;;;20.40;99.90;;;;;;5040188;28;19999;-80
2021/09/19 13:43:08;;;;;;;;;;;20.50;99.90;;;;;;5040860;28;19923;-81
2021/09/19 13:45:34;;;;;;;;;;;20.50;99.90;;;;;;5063713;28;19970;-82
2021/09/19 13:47:59;;;;;;;;;;;20.60;99.90;;;;;;5064759;28;19913;-82
2021/09/19 13:50:25;;;;;;;;;;;20.70;99.90;;;;;;5065661;28;19913;-83
2021/09/19 13:52:51;;;;;;;;;;;20.70;99.90;;;;;;5047571;28;20054;-90
2021/09/19 13:55:16;;;;;;;;;;;20.70;99.90;;;;;;5063056;28;20133;-93
2021/09/19 13:57:42;;;;;;;;;;;20.80;99.90;;;;;;5044430;28;20602;-78
2021/09/19 14:00:08;;;;;;;;;;;20.70;99.90;;;;;;5059053;28;20022;-80
2021/09/19 14:02:34;;;;;;;;;;;20.80;99.90;;;;;;5057314;28;19921;-87
2021/09/19 14:04:59;;;;;;;;;;;20.70;99.90;;;;;;5059565;28;20335;-81
2021/09/19 14:07:25;;;;;;;;;;;20.70;99.90;;;;;;5062347;28;19997;-81
2021/09/19 14:09:50;;;;;;;;;;;20.60;99.90;;;;;;5055833;28;19915;-85
2021/09/19 14:12:16;;;;;;;;;;;20.70;99.90;;;;;;5053258;28;19917;-81